Terminal Aerodrome Forecast
Issued by NWS Northern Indiana

Home | Current Version | Previous Version | Text Only | Print | Product List | Glossary Off
Versions: 1 2 3 4 5 6 7 8 9 10 11 12 13 14 15 16 17

000
FTUS43 KIWX 212320
TAFFWA
TAF
KFWA 212320Z 2200/2224 10003KT P6SM SCT120
     FM220300 13004KT P6SM BKN100
     FM221100 22008KT P6SM BKN150
     FM221700 21015G22KT P6SM SCT150=

USA.gov is the U.S. government's official web portal to all federal, state and local government web resources and services.